Huvudsida
METAR-TAF:

METAR-TAF

Flygplatser :

Abha, Saudiarabien

latitud: 18-14N, longitud: 042-39E, höjd: 2090 m

Aktuellt väderrapport

Denna rapport gjordes för 43 minuter sedan, klockan 03:00 UTC
Stilla vind
Temperatur 11°C
Fuktighet 94%
Tryck 1025 hPa
Sikt 10 km eller mer
Inga moln under 1 500 m eller inga cumulonimbus

METAR: OEAB 110300Z 00000KT CAVOK 11/10 Q1025 NOSIG

Tid: 06:43 (03:43 UTC)

Väderprognos

Denna rapport gjordes för 4 timmar och 43 minuter sedan, klockan 23:00 UTC
Prognos gäller från 11 kl. 00 UTC till 12 kl. 06 UTC
Vind 3 kt varierande vindriktning
Sikt: 7000 m
Spridda moln på en höjd av 2000 ft
Temporärt
från 11 kl. 00 UTC till 11 kl. 06 UTC
Sikt: 2000 m
fuktdis
Blir
från 11 kl. 06 UTC till 11 kl. 08 UTC
Vind 15 kt från syd/sydväst
Temporärt
från 11 kl. 09 UTC till 11 kl. 18 UTC
Få moln på en höjd av 2500 ft, Cumulonimbus.

TAF: OEAB 102300Z 1100/1206 VRB03KT 7000 SCT020 TEMPO 1100/1106 2000 BR BECMG 1106/1108 20015KT TEMPO 1109/1118 FEW025CB

Aktuella väderrapporter och prognoser från 4000 flygplatser (METAR- och TAF-rapporter).

De tillgängliga stationerna syns som gula och röda prickar på kartan.

För musen över prickarna för att se namnen på stationerna.

Klicka sedan för att få väderrapporter och prognoser.

För att ändra kartan: Klicka på de gröna knapparna med ett svart kors på för att zooma in; den gröna knappen med ett streck på för att zooma ut; eller på de gröna pilarna för angränsande kartor.


METAR-TAF: